Terminal Aerodrome Forecast
Issued by NWS

Home | Current Version | Previous Version | Text Only | Print | Product List | Glossary On
Versions: 1 2 3 4 5 6 7 8 9 10 11 12 13 14 15 16 17 18 19 20 21 22 23 24 25 26 27 28 29 30 31
681
FTUS43 KDMX 292329
TAFMCW
TAF
KMCW 292329Z 3000/3024 05018G27KT P6SM FEW080 OVC100
     FM300800 05015G23KT P6SM VCSH OVC150
     FM301400 05018G27KT 3SM SHRA OVC022
     FM301700 05020G29KT 1 1/2SM SHRA OVC020
     FM302100 05018G27KT 3SM SHRA OVC011=

USA.gov is the U.S. government's official web portal to all federal, state and local government web resources and services.